sensor_id;sensor_type;location;lat;lon;timestamp;pressure;altitude;pressure_sealevel;temperature;humidity
64402;BME280;50724;42.376;23.768;2023-05-14T00:00:45;93689.13;;;9.80;87.77
64402;BME280;50724;42.376;23.768;2023-05-14T00:03:47;93693.25;;;9.83;88.52
64402;BME280;50724;42.376;23.768;2023-05-14T00:06:47;93687.91;;;9.84;89.25
64402;BME280;50724;42.376;23.768;2023-05-14T00:09:47;93689.00;;;9.82;89.64
64402;BME280;50724;42.376;23.768;2023-05-14T00:12:50;93688.56;;;10.04;85.60
64402;BME280;50724;42.376;23.768;2023-05-14T00:15:50;93686.63;;;10.06;86.45
64402;BME280;50724;42.376;23.768;2023-05-14T00:18:51;93683.47;;;10.12;84.29
64402;BME280;50724;42.376;23.768;2023-05-14T00:21:51;93676.38;;;10.22;83.50
64402;BME280;50724;42.376;23.768;2023-05-14T00:25:01;93671.66;;;10.08;83.61
64402;BME280;50724;42.376;23.768;2023-05-14T00:28:02;93673.88;;;10.03;84.97
64402;BME280;50724;42.376;23.768;2023-05-14T00:31:03;93668.84;;;9.92;87.42
64402;BME280;50724;42.376;23.768;2023-05-14T00:34:03;93662.16;;;9.89;86.98
64402;BME280;50724;42.376;23.768;2023-05-14T00:37:04;93662.50;;;9.94;85.29
64402;BME280;50724;42.376;23.768;2023-05-14T00:40:05;93664.97;;;9.78;86.01
64402;BME280;50724;42.376;23.768;2023-05-14T00:43:07;93661.78;;;10.02;84.38
64402;BME280;50724;42.376;23.768;2023-05-14T00:46:08;93657.22;;;10.04;85.38
64402;BME280;50724;42.376;23.768;2023-05-14T00:49:08;93652.81;;;10.04;84.52
64402;BME280;50724;42.376;23.768;2023-05-14T00:52:10;93640.44;;;10.24;82.75
64402;BME280;50724;42.376;23.768;2023-05-14T00:55:12;93636.41;;;10.29;81.23
64402;BME280;50724;42.376;23.768;2023-05-14T00:58:16;93645.47;;;10.17;81.11
64402;BME280;50724;42.376;23.768;2023-05-14T01:01:17;93648.19;;;9.98;80.45
64402;BME280;50724;42.376;23.768;2023-05-14T01:04:17;93633.53;;;9.88;81.90
64402;BME280;50724;42.376;23.768;2023-05-14T01:08:06;93643.09;;;9.79;80.82
64402;BME280;50724;42.376;23.768;2023-05-14T01:10:52;93642.88;;;9.90;80.27
64402;BME280;50724;42.376;23.768;2023-05-14T01:17:27;93631.47;;;9.91;78.86
64402;BME280;50724;42.376;23.768;2023-05-14T01:20:29;93626.50;;;9.70;80.66
64402;BME280;50724;42.376;23.768;2023-05-14T01:23:29;93620.16;;;9.55;79.94
64402;BME280;50724;42.376;23.768;2023-05-14T01:26:30;93624.78;;;9.44;80.87
64402;BME280;50724;42.376;23.768;2023-05-14T01:29:32;93632.00;;;9.50;79.32
64402;BME280;50724;42.376;23.768;2023-05-14T01:32:38;93636.72;;;9.46;80.72
64402;BME280;50724;42.376;23.768;2023-05-14T01:35:40;93638.72;;;9.52;80.93
64402;BME280;50724;42.376;23.768;2023-05-14T01:38:40;93638.72;;;9.52;81.93
64402;BME280;50724;42.376;23.768;2023-05-14T01:41:45;93645.28;;;9.39;81.30
64402;BME280;50724;42.376;23.768;2023-05-14T01:44:45;93649.28;;;9.60;80.01
64402;BME280;50724;42.376;23.768;2023-05-14T01:47:46;93661.84;;;9.47;78.93
64402;BME280;50724;42.376;23.768;2023-05-14T01:50:47;93655.78;;;9.56;78.83
64402;BME280;50724;42.376;23.768;2023-05-14T01:53:47;93669.84;;;9.46;77.96
64402;BME280;50724;42.376;23.768;2023-05-14T01:56:48;93669.84;;;9.46;77.37
64402;BME280;50724;42.376;23.768;2023-05-14T01:59:48;93670.38;;;9.49;80.87
64402;BME280;50724;42.376;23.768;2023-05-14T02:02:48;93669.88;;;9.36;82.80
64402;BME280;50724;42.376;23.768;2023-05-14T02:05:49;93668.72;;;9.21;86.22
64402;BME280;50724;42.376;23.768;2023-05-14T02:08:50;93664.41;;;9.30;84.83
64402;BME280;50724;42.376;23.768;2023-05-14T02:11:50;93667.09;;;9.38;85.58
64402;BME280;50724;42.376;23.768;2023-05-14T02:14:51;93657.94;;;9.34;84.13
64402;BME280;50724;42.376;23.768;2023-05-14T02:17:51;93670.84;;;9.35;83.94
64402;BME280;50724;42.376;23.768;2023-05-14T02:20:51;93684.06;;;8.97;87.50
64402;BME280;50724;42.376;23.768;2023-05-14T02:23:52;93693.38;;;8.99;89.68
64402;BME280;50724;42.376;23.768;2023-05-14T02:26:52;93684.47;;;8.92;88.66
64402;BME280;50724;42.376;23.768;2023-05-14T02:29:53;93686.47;;;9.08;84.93
64402;BME280;50724;42.376;23.768;2023-05-14T02:32:53;93685.09;;;9.14;89.96
64402;BME280;50724;42.376;23.768;2023-05-14T02:35:54;93690.00;;;8.80;92.58
64402;BME280;50724;42.376;23.768;2023-05-14T02:38:55;93691.00;;;8.69;94.05
64402;BME280;50724;42.376;23.768;2023-05-14T02:41:56;93689.75;;;8.73;93.16
64402;BME280;50724;42.376;23.768;2023-05-14T02:44:56;93699.63;;;8.70;92.94
64402;BME280;50724;42.376;23.768;2023-05-14T02:47:57;93700.41;;;8.80;92.98
64402;BME280;50724;42.376;23.768;2023-05-14T02:50:57;93696.50;;;8.47;94.57
64402;BME280;50724;42.376;23.768;2023-05-14T02:53:57;93695.16;;;8.34;95.96
64402;BME280;50724;42.376;23.768;2023-05-14T02:56:58;93697.34;;;8.48;96.05
64402;BME280;50724;42.376;23.768;2023-05-14T02:59:58;93705.13;;;8.19;97.67
64402;BME280;50724;42.376;23.768;2023-05-14T03:02:59;93704.72;;;8.23;98.64
64402;BME280;50724;42.376;23.768;2023-05-14T03:05:59;93700.59;;;8.21;97.27
64402;BME280;50724;42.376;23.768;2023-05-14T03:08:59;93706.00;;;8.39;96.18
64402;BME280;50724;42.376;23.768;2023-05-14T03:12:00;93703.53;;;8.27;95.14
64402;BME280;50724;42.376;23.768;2023-05-14T03:15:00;93707.19;;;8.15;97.97
64402;BME280;50724;42.376;23.768;2023-05-14T03:18:01;93711.16;;;8.19;100.00
64402;BME280;50724;42.376;23.768;2023-05-14T03:21:01;93705.38;;;8.25;100.00
64402;BME280;50724;42.376;23.768;2023-05-14T03:24:03;93702.00;;;8.25;100.00
64402;BME280;50724;42.376;23.768;2023-05-14T03:27:03;93705.84;;;8.30;100.00
64402;BME280;50724;42.376;23.768;2023-05-14T03:30:04;93691.44;;;8.26;100.00
64402;BME280;50724;42.376;23.768;2023-05-14T03:33:05;93688.69;;;8.28;99.60
64402;BME280;50724;42.376;23.768;2023-05-14T03:36:06;93682.66;;;8.37;100.00
64402;BME280;50724;42.376;23.768;2023-05-14T03:39:06;93686.78;;;8.20;100.00
64402;BME280;50724;42.376;23.768;2023-05-14T03:42:08;93692.78;;;8.21;100.00
64402;BME280;50724;42.376;23.768;2023-05-14T03:45:09;93684.53;;;8.25;100.00
64402;BME280;50724;42.376;23.768;2023-05-14T03:48:09;93691.19;;;8.29;100.00
64402;BME280;50724;42.376;23.768;2023-05-14T03:51:10;93687.88;;;8.18;100.00
64402;BME280;50724;42.376;23.768;2023-05-14T03:54:10;93680.88;;;8.28;100.00
64402;BME280;50724;42.376;23.768;2023-05-14T03:57:10;93657.41;;;8.38;100.00
64402;BME280;50724;42.376;23.768;2023-05-14T04:00:11;93667.41;;;8.52;100.00
64402;BME280;50724;42.376;23.768;2023-05-14T04:03:12;93676.19;;;8.60;100.00
64402;BME280;50724;42.376;23.768;2023-05-14T04:06:12;93676.03;;;8.71;100.00
64402;BME280;50724;42.376;23.768;2023-05-14T04:09:13;93668.75;;;8.65;100.00
64402;BME280;50724;42.376;23.768;2023-05-14T04:12:13;93674.63;;;8.77;99.81
64402;BME280;50724;42.376;23.768;2023-05-14T04:15:13;93689.91;;;8.72;98.39
64402;BME280;50724;42.376;23.768;2023-05-14T04:18:15;93705.97;;;8.67;98.28
64402;BME280;50724;42.376;23.768;2023-05-14T04:21:16;93691.13;;;8.58;98.37
64402;BME280;50724;42.376;23.768;2023-05-14T04:24:16;93705.31;;;8.46;94.29
64402;BME280;50724;42.376;23.768;2023-05-14T04:27:20;93707.75;;;8.48;95.63
64402;BME280;50724;42.376;23.768;2023-05-14T04:30:21;93715.16;;;8.43;97.01
64402;BME280;50724;42.376;23.768;2023-05-14T04:33:21;93710.78;;;8.34;97.40
64402;BME280;50724;42.376;23.768;2023-05-14T04:36:22;93714.50;;;8.31;99.85
64402;BME280;50724;42.376;23.768;2023-05-14T04:39:22;93703.59;;;8.07;94.68
64402;BME280;50724;42.376;23.768;2023-05-14T04:42:23;93706.50;;;8.13;96.88
64402;BME280;50724;42.376;23.768;2023-05-14T04:45:24;93710.94;;;8.32;96.25
64402;BME280;50724;42.376;23.768;2023-05-14T04:48:25;93715.16;;;8.43;98.48
64402;BME280;50724;42.376;23.768;2023-05-14T04:51:26;93717.09;;;8.50;96.64
64402;BME280;50724;42.376;23.768;2023-05-14T04:54:26;93730.28;;;8.29;97.96
64402;BME280;50724;42.376;23.768;2023-05-14T04:57:27;93736.28;;;8.30;95.59
64402;BME280;50724;42.376;23.768;2023-05-14T05:00:28;93723.81;;;8.34;97.45
64402;BME280;50724;42.376;23.768;2023-05-14T05:03:28;93735.75;;;8.46;93.96
64402;BME280;50724;42.376;23.768;2023-05-14T05:06:28;93737.53;;;8.55;98.88
64402;BME280;50724;42.376;23.768;2023-05-14T05:09:29;93737.09;;;8.30;95.53
64402;BME280;50724;42.376;23.768;2023-05-14T05:12:29;93739.88;;;8.29;96.11
64402;BME280;50724;42.376;23.768;2023-05-14T05:15:30;93740.81;;;8.28;98.11
64402;BME280;50724;42.376;23.768;2023-05-14T05:18:30;93734.34;;;8.22;94.96
64402;BME280;50724;42.376;23.768;2023-05-14T05:21:31;93743.31;;;8.29;97.47
64402;BME280;50724;42.376;23.768;2023-05-14T05:24:31;93758.72;;;8.02;100.00
64402;BME280;50724;42.376;23.768;2023-05-14T05:27:31;93759.38;;;7.85;100.00
64402;BME280;50724;42.376;23.768;2023-05-14T05:30:32;93762.53;;;7.89;100.00
64402;BME280;50724;42.376;23.768;2023-05-14T05:33:33;93760.97;;;7.67;100.00
64402;BME280;50724;42.376;23.768;2023-05-14T05:36:34;93773.19;;;7.67;100.00
64402;BME280;50724;42.376;23.768;2023-05-14T05:39:34;93785.16;;;7.48;100.00
64402;BME280;50724;42.376;23.768;2023-05-14T05:42:35;93801.00;;;7.66;100.00
64402;BME280;50724;42.376;23.768;2023-05-14T05:45:35;93801.88;;;7.55;100.00
64402;BME280;50724;42.376;23.768;2023-05-14T05:48:36;93799.63;;;7.41;100.00
64402;BME280;50724;42.376;23.768;2023-05-14T05:51:36;93799.09;;;7.38;100.00
64402;BME280;50724;42.376;23.768;2023-05-14T05:54:37;93778.81;;;7.41;100.00
64402;BME280;50724;42.376;23.768;2023-05-14T05:57:39;93794.47;;;7.51;100.00
64402;BME280;50724;42.376;23.768;2023-05-14T06:00:39;93791.53;;;7.65;100.00
64402;BME280;50724;42.376;23.768;2023-05-14T06:03:40;93810.34;;;7.78;100.00
64402;BME280;50724;42.376;23.768;2023-05-14T06:06:41;93806.69;;;7.60;100.00
64402;BME280;50724;42.376;23.768;2023-05-14T06:09:49;93795.81;;;7.76;100.00
64402;BME280;50724;42.376;23.768;2023-05-14T06:12:50;93794.81;;;7.67;100.00
64402;BME280;50724;42.376;23.768;2023-05-14T06:15:50;93794.13;;;7.65;100.00
64402;BME280;50724;42.376;23.768;2023-05-14T06:18:51;93800.06;;;7.77;100.00
64402;BME280;50724;42.376;23.768;2023-05-14T06:21:51;93804.78;;;7.62;100.00
64402;BME280;50724;42.376;23.768;2023-05-14T06:24:52;93804.50;;;7.55;100.00
64402;BME280;50724;42.376;23.768;2023-05-14T06:27:52;93810.28;;;7.59;100.00
64402;BME280;50724;42.376;23.768;2023-05-14T06:30:53;93809.69;;;7.55;100.00
64402;BME280;50724;42.376;23.768;2023-05-14T06:33:53;93804.88;;;7.51;100.00
64402;BME280;50724;42.376;23.768;2023-05-14T06:36:54;93809.69;;;7.55;100.00
64402;BME280;50724;42.376;23.768;2023-05-14T06:39:54;93801.94;;;7.65;100.00
64402;BME280;50724;42.376;23.768;2023-05-14T06:42:55;93802.28;;;7.51;100.00
64402;BME280;50724;42.376;23.768;2023-05-14T06:45:55;93788.09;;;7.64;100.00
64402;BME280;50724;42.376;23.768;2023-05-14T06:48:56;93763.69;;;7.56;100.00
64402;BME280;50724;42.376;23.768;2023-05-14T06:51:57;93766.38;;;7.85;100.00
64402;BME280;50724;42.376;23.768;2023-05-14T06:54:57;93775.38;;;7.81;100.00
64402;BME280;50724;42.376;23.768;2023-05-14T06:57:58;93788.28;;;7.82;100.00
64402;BME280;50724;42.376;23.768;2023-05-14T07:01:01;93801.47;;;8.00;100.00
64402;BME280;50724;42.376;23.768;2023-05-14T07:04:02;93809.34;;;8.19;100.00
64402;BME280;50724;42.376;23.768;2023-05-14T07:07:02;93816.19;;;8.10;100.00
64402;BME280;50724;42.376;23.768;2023-05-14T07:10:12;93808.50;;;8.18;100.00
64402;BME280;50724;42.376;23.768;2023-05-14T07:13:12;93785.69;;;8.32;100.00
64402;BME280;50724;42.376;23.768;2023-05-14T07:16:13;93781.84;;;8.55;100.00
64402;BME280;50724;42.376;23.768;2023-05-14T07:19:13;93774.69;;;8.76;100.00
64402;BME280;50724;42.376;23.768;2023-05-14T07:22:14;93768.91;;;8.82;100.00
64402;BME280;50724;42.376;23.768;2023-05-14T07:25:14;93768.88;;;9.01;100.00
64402;BME280;50724;42.376;23.768;2023-05-14T07:28:15;93774.41;;;9.44;100.00
64402;BME280;50724;42.376;23.768;2023-05-14T07:31:15;93782.31;;;9.62;98.65
64402;BME280;50724;42.376;23.768;2023-05-14T07:34:16;93785.56;;;9.74;96.15
64402;BME280;50724;42.376;23.768;2023-05-14T07:37:16;93806.03;;;9.78;95.65
64402;BME280;50724;42.376;23.768;2023-05-14T07:40:20;93822.53;;;9.32;94.25
64402;BME280;50724;42.376;23.768;2023-05-14T07:43:21;93823.22;;;9.25;95.74
64402;BME280;50724;42.376;23.768;2023-05-14T07:46:21;93810.34;;;9.23;98.21
64402;BME280;50724;42.376;23.768;2023-05-14T07:49:23;93810.78;;;9.09;96.04
64402;BME280;50724;42.376;23.768;2023-05-14T07:52:23;93806.94;;;8.84;99.88
64402;BME280;50724;42.376;23.768;2023-05-14T07:55:24;93820.28;;;8.72;100.00
64402;BME280;50724;42.376;23.768;2023-05-14T07:58:25;93840.00;;;8.46;100.00
64402;BME280;50724;42.376;23.768;2023-05-14T08:01:27;93848.84;;;8.24;100.00
64402;BME280;50724;42.376;23.768;2023-05-14T08:04:27;93840.56;;;8.59;100.00
64402;BME280;50724;42.376;23.768;2023-05-14T08:07:28;93844.00;;;8.69;100.00
64402;BME280;50724;42.376;23.768;2023-05-14T08:10:30;93851.44;;;8.83;100.00
64402;BME280;50724;42.376;23.768;2023-05-14T08:13:30;93836.75;;;8.53;100.00
64402;BME280;50724;42.376;23.768;2023-05-14T08:16:31;93829.19;;;8.60;100.00
64402;BME280;50724;42.376;23.768;2023-05-14T08:19:31;93827.94;;;8.83;100.00
64402;BME280;50724;42.376;23.768;2023-05-14T08:22:32;93824.66;;;8.71;100.00
64402;BME280;50724;42.376;23.768;2023-05-14T08:25:32;93819.31;;;8.73;100.00
64402;BME280;50724;42.376;23.768;2023-05-14T08:28:33;93817.38;;;8.84;100.00
64402;BME280;50724;42.376;23.768;2023-05-14T08:31:33;93827.13;;;8.92;100.00
64402;BME280;50724;42.376;23.768;2023-05-14T08:34:34;93813.66;;;8.87;100.00
64402;BME280;50724;42.376;23.768;2023-05-14T08:37:34;93823.28;;;8.77;100.00
64402;BME280;50724;42.376;23.768;2023-05-14T08:40:35;93814.75;;;8.84;100.00
64402;BME280;50724;42.376;23.768;2023-05-14T08:46:54;93806.25;;;8.82;100.00
64402;BME280;50724;42.376;23.768;2023-05-14T08:53:06;93803.38;;;8.66;100.00
64402;BME280;50724;42.376;23.768;2023-05-14T08:56:07;93804.47;;;8.73;100.00
64402;BME280;50724;42.376;23.768;2023-05-14T08:59:08;93796.25;;;8.87;100.00
64402;BME280;50724;42.376;23.768;2023-05-14T09:02:10;93797.50;;;8.74;100.00
64402;BME280;50724;42.376;23.768;2023-05-14T09:05:16;93784.53;;;9.01;100.00
64402;BME280;50724;42.376;23.768;2023-05-14T09:08:16;93785.81;;;8.87;100.00
64402;BME280;50724;42.376;23.768;2023-05-14T09:11:16;93782.63;;;8.93;100.00
64402;BME280;50724;42.376;23.768;2023-05-14T09:14:17;93773.44;;;8.89;100.00
64402;BME280;50724;42.376;23.768;2023-05-14T09:17:18;93769.22;;;8.79;100.00
64402;BME280;50724;42.376;23.768;2023-05-14T09:20:19;93771.81;;;8.79;100.00
64402;BME280;50724;42.376;23.768;2023-05-14T09:23:20;93773.88;;;8.85;100.00
64402;BME280;50724;42.376;23.768;2023-05-14T09:26:23;93781.94;;;9.01;100.00
64402;BME280;50724;42.376;23.768;2023-05-14T09:29:28;93788.66;;;9.04;100.00
64402;BME280;50724;42.376;23.768;2023-05-14T09:32:35;93788.00;;;8.92;100.00
64402;BME280;50724;42.376;23.768;2023-05-14T09:35:36;93802.56;;;8.85;100.00
64402;BME280;50724;42.376;23.768;2023-05-14T09:38:39;93797.06;;;8.88;100.00
64402;BME280;50724;42.376;23.768;2023-05-14T09:41:39;93798.69;;;8.89;100.00
64402;BME280;50724;42.376;23.768;2023-05-14T09:44:40;93796.38;;;8.95;100.00
64402;BME280;50724;42.376;23.768;2023-05-14T09:47:41;93797.06;;;8.97;100.00
64402;BME280;50724;42.376;23.768;2023-05-14T09:50:43;93797.31;;;8.94;100.00
64402;BME280;50724;42.376;23.768;2023-05-14T09:53:44;93783.72;;;8.91;100.00
64402;BME280;50724;42.376;23.768;2023-05-14T09:56:44;93769.34;;;8.68;100.00
64402;BME280;50724;42.376;23.768;2023-05-14T09:59:45;93765.63;;;8.61;100.00
64402;BME280;50724;42.376;23.768;2023-05-14T10:02:46;93764.69;;;8.71;100.00
64402;BME280;50724;42.376;23.768;2023-05-14T10:05:48;93755.88;;;8.82;100.00
64402;BME280;50724;42.376;23.768;2023-05-14T10:08:53;93763.56;;;8.93;100.00
64402;BME280;50724;42.376;23.768;2023-05-14T10:11:58;93758.34;;;8.93;100.00
64402;BME280;50724;42.376;23.768;2023-05-14T10:15:16;93746.91;;;9.13;100.00
64402;BME280;50724;42.376;23.768;2023-05-14T10:18:22;93746.91;;;9.13;100.00
64402;BME280;50724;42.376;23.768;2023-05-14T10:21:23;93746.03;;;9.22;100.00
64402;BME280;50724;42.376;23.768;2023-05-14T10:24:24;93718.25;;;8.84;100.00
64402;BME280;50724;42.376;23.768;2023-05-14T10:27:25;93736.84;;;8.72;100.00
64402;BME280;50724;42.376;23.768;2023-05-14T10:30:26;93739.44;;;8.81;100.00
64402;BME280;50724;42.376;23.768;2023-05-14T10:33:27;93741.06;;;8.82;100.00
64402;BME280;50724;42.376;23.768;2023-05-14T10:36:27;93748.63;;;8.76;100.00
64402;BME280;50724;42.376;23.768;2023-05-14T10:39:51;93725.53;;;8.90;100.00
64402;BME280;50724;42.376;23.768;2023-05-14T10:42:54;93712.78;;;8.87;100.00
64402;BME280;50724;42.376;23.768;2023-05-14T10:45:59;93710.00;;;8.89;100.00
64402;BME280;50724;42.376;23.768;2023-05-14T10:48:59;93699.97;;;8.94;100.00
64402;BME280;50724;42.376;23.768;2023-05-14T10:52:00;93710.16;;;8.87;100.00
64402;BME280;50724;42.376;23.768;2023-05-14T10:55:05;93720.16;;;8.92;100.00
64402;BME280;50724;42.376;23.768;2023-05-14T10:58:11;93736.38;;;8.95;100.00
64402;BME280;50724;42.376;23.768;2023-05-14T11:01:12;93718.25;;;8.94;100.00
64402;BME280;50724;42.376;23.768;2023-05-14T11:04:22;93715.88;;;9.00;100.00
64402;BME280;50724;42.376;23.768;2023-05-14T11:07:28;93716.88;;;8.90;100.00
64402;BME280;50724;42.376;23.768;2023-05-14T11:10:29;93732.81;;;8.87;100.00
64402;BME280;50724;42.376;23.768;2023-05-14T11:13:30;93723.47;;;8.94;100.00
64402;BME280;50724;42.376;23.768;2023-05-14T11:16:30;93723.63;;;8.83;100.00
64402;BME280;50724;42.376;23.768;2023-05-14T11:19:31;93720.34;;;8.81;100.00
64402;BME280;50724;42.376;23.768;2023-05-14T11:22:35;93724.44;;;8.93;100.00
64402;BME280;50724;42.376;23.768;2023-05-14T11:25:36;93722.94;;;8.81;100.00
64402;BME280;50724;42.376;23.768;2023-05-14T11:28:37;93715.81;;;8.73;100.00
64402;BME280;50724;42.376;23.768;2023-05-14T11:31:39;93727.34;;;8.80;100.00
64402;BME280;50724;42.376;23.768;2023-05-14T11:34:41;93713.72;;;8.86;100.00
64402;BME280;50724;42.376;23.768;2023-05-14T11:37:42;93724.75;;;8.71;100.00
64402;BME280;50724;42.376;23.768;2023-05-14T11:40:53;93715.81;;;8.73;100.00
64402;BME280;50724;42.376;23.768;2023-05-14T11:43:54;93716.50;;;8.75;100.00
64402;BME280;50724;42.376;23.768;2023-05-14T11:46:55;93711.03;;;8.69;100.00
64402;BME280;50724;42.376;23.768;2023-05-14T11:49:56;93720.63;;;8.68;100.00
64402;BME280;50724;42.376;23.768;2023-05-14T11:52:58;93710.03;;;8.79;100.00
64402;BME280;50724;42.376;23.768;2023-05-14T11:55:58;93707.84;;;8.75;100.00
64402;BME280;50724;42.376;23.768;2023-05-14T11:58:59;93704.16;;;8.68;100.00
64402;BME280;50724;42.376;23.768;2023-05-14T12:02:00;93694.81;;;8.75;100.00
64402;BME280;50724;42.376;23.768;2023-05-14T12:05:01;93705.47;;;8.91;100.00
64402;BME280;50724;42.376;23.768;2023-05-14T12:08:02;93709.88;;;8.90;100.00
64402;BME280;50724;42.376;23.768;2023-05-14T12:11:02;93700.22;;;9.00;100.00
64402;BME280;50724;42.376;23.768;2023-05-14T12:14:09;93689.78;;;9.00;100.00
64402;BME280;50724;42.376;23.768;2023-05-14T12:17:12;93680.22;;;8.91;100.00
64402;BME280;50724;42.376;23.768;2023-05-14T12:20:14;93673.91;;;8.84;100.00
64402;BME280;50724;42.376;23.768;2023-05-14T12:23:14;93675.69;;;8.84;100.00
64402;BME280;50724;42.376;23.768;2023-05-14T12:26:15;93676.41;;;8.86;100.00
64402;BME280;50724;42.376;23.768;2023-05-14T12:29:15;93674.03;;;8.92;100.00
64402;BME280;50724;42.376;23.768;2023-05-14T12:32:16;93668.66;;;8.94;100.00
64402;BME280;50724;42.376;23.768;2023-05-14T12:35:17;93657.84;;;8.89;100.00
64402;BME280;50724;42.376;23.768;2023-05-14T12:38:17;93652.06;;;8.95;100.00
64402;BME280;50724;42.376;23.768;2023-05-14T12:41:18;93642.94;;;9.09;100.00
64402;BME280;50724;42.376;23.768;2023-05-14T12:44:18;93644.72;;;9.08;100.00
64402;BME280;50724;42.376;23.768;2023-05-14T12:47:18;93649.38;;;9.14;100.00
64402;BME280;50724;42.376;23.768;2023-05-14T12:50:19;93638.88;;;8.96;100.00
64402;BME280;50724;42.376;23.768;2023-05-14T12:53:20;93624.91;;;8.88;100.00
64402;BME280;50724;42.376;23.768;2023-05-14T12:56:20;93648.78;;;8.93;100.00
64402;BME280;50724;42.376;23.768;2023-05-14T12:59:26;93632.31;;;8.92;100.00
64402;BME280;50724;42.376;23.768;2023-05-14T13:02:36;93632.88;;;8.77;100.00
64402;BME280;50724;42.376;23.768;2023-05-14T13:05:36;93615.91;;;8.73;100.00
64402;BME280;50724;42.376;23.768;2023-05-14T13:08:37;93619.50;;;8.62;100.00
64402;BME280;50724;42.376;23.768;2023-05-14T13:11:37;93607.81;;;8.66;100.00
64402;BME280;50724;42.376;23.768;2023-05-14T13:14:38;93600.06;;;8.47;100.00
64402;BME280;50724;42.376;23.768;2023-05-14T13:17:38;93597.81;;;8.62;100.00
64402;BME280;50724;42.376;23.768;2023-05-14T13:20:40;93607.00;;;8.66;100.00
64402;BME280;50724;42.376;23.768;2023-05-14T13:23:41;93599.81;;;8.77;100.00
64402;BME280;50724;42.376;23.768;2023-05-14T13:26:50;93594.31;;;8.44;100.00
64402;BME280;50724;42.376;23.768;2023-05-14T13:29:50;93591.25;;;8.58;100.00
64402;BME280;50724;42.376;23.768;2023-05-14T13:32:51;93583.28;;;8.59;100.00
64402;BME280;50724;42.376;23.768;2023-05-14T13:35:51;93582.63;;;8.84;100.00
64402;BME280;50724;42.376;23.768;2023-05-14T13:38:52;93590.59;;;8.83;100.00
64402;BME280;50724;42.376;23.768;2023-05-14T13:41:55;93593.91;;;8.85;100.00
64402;BME280;50724;42.376;23.768;2023-05-14T13:44:57;93598.00;;;8.87;100.00
64402;BME280;50724;42.376;23.768;2023-05-14T13:47:58;93610.41;;;8.76;100.00
64402;BME280;50724;42.376;23.768;2023-05-14T13:50:58;93591.59;;;8.72;100.00
64402;BME280;50724;42.376;23.768;2023-05-14T13:53:59;93586.84;;;8.58;100.00
64402;BME280;50724;42.376;23.768;2023-05-14T13:56:59;93590.25;;;8.68;100.00
64402;BME280;50724;42.376;23.768;2023-05-14T14:00:00;93590.72;;;8.54;100.00
64402;BME280;50724;42.376;23.768;2023-05-14T14:03:00;93582.72;;;8.56;100.00
64402;BME280;50724;42.376;23.768;2023-05-14T14:06:01;93600.38;;;8.15;100.00
64402;BME280;50724;42.376;23.768;2023-05-14T14:09:01;93615.72;;;8.09;100.00
64402;BME280;50724;42.376;23.768;2023-05-14T14:12:03;93611.22;;;8.01;100.00
64402;BME280;50724;42.376;23.768;2023-05-14T14:15:13;93608.19;;;8.25;100.00
64402;BME280;50724;42.376;23.768;2023-05-14T14:18:14;93599.13;;;8.39;100.00
64402;BME280;50724;42.376;23.768;2023-05-14T14:21:14;93590.91;;;8.14;100.00
64402;BME280;50724;42.376;23.768;2023-05-14T14:24:17;93585.31;;;8.00;100.00
64402;BME280;50724;42.376;23.768;2023-05-14T14:27:17;93578.28;;;8.19;100.00
64402;BME280;50724;42.376;23.768;2023-05-14T14:30:18;93579.94;;;8.20;100.00
64402;BME280;50724;42.376;23.768;2023-05-14T14:33:19;93581.19;;;8.26;100.00
64402;BME280;50724;42.376;23.768;2023-05-14T14:36:19;93569.56;;;8.57;100.00
64402;BME280;50724;42.376;23.768;2023-05-14T14:39:28;93553.53;;;8.52;100.00
64402;BME280;50724;42.376;23.768;2023-05-14T14:42:28;93569.19;;;8.52;100.00
64402;BME280;50724;42.376;23.768;2023-05-14T14:45:29;93578.16;;;8.30;100.00
64402;BME280;50724;42.376;23.768;2023-05-14T14:48:33;93585.84;;;8.32;100.00
64402;BME280;50724;42.376;23.768;2023-05-14T14:51:36;93588.13;;;8.25;100.00
64402;BME280;50724;42.376;23.768;2023-05-14T14:54:37;93577.44;;;8.48;100.00
64402;BME280;50724;42.376;23.768;2023-05-14T14:57:37;93576.16;;;8.52;100.00
64402;BME280;50724;42.376;23.768;2023-05-14T15:00:38;93563.13;;;8.52;100.00
64402;BME280;50724;42.376;23.768;2023-05-14T15:03:39;93565.84;;;8.69;100.00
64402;BME280;50724;42.376;23.768;2023-05-14T15:06:40;93568.16;;;8.63;100.00
64402;BME280;50724;42.376;23.768;2023-05-14T15:09:40;93574.56;;;8.78;100.00
64402;BME280;50724;42.376;23.768;2023-05-14T15:12:40;93581.34;;;8.61;100.00
64402;BME280;50724;42.376;23.768;2023-05-14T15:15:41;93586.59;;;8.52;100.00
64402;BME280;50724;42.376;23.768;2023-05-14T15:18:42;93599.97;;;8.29;100.00
64402;BME280;50724;42.376;23.768;2023-05-14T15:21:42;93585.25;;;8.48;100.00
64402;BME280;50724;42.376;23.768;2023-05-14T15:24:43;93585.75;;;8.61;100.00
64402;BME280;50724;42.376;23.768;2023-05-14T15:27:43;93574.81;;;8.48;100.00
64402;BME280;50724;42.376;23.768;2023-05-14T15:30:46;93568.47;;;8.60;100.00
64402;BME280;50724;42.376;23.768;2023-05-14T15:33:46;93576.03;;;8.53;100.00
64402;BME280;50724;42.376;23.768;2023-05-14T15:36:47;93581.75;;;8.66;100.00
64402;BME280;50724;42.376;23.768;2023-05-14T15:39:47;93584.66;;;8.54;100.00
64402;BME280;50724;42.376;23.768;2023-05-14T15:42:56;93580.09;;;8.65;100.00
64402;BME280;50724;42.376;23.768;2023-05-14T15:45:57;93569.16;;;8.62;100.00
64402;BME280;50724;42.376;23.768;2023-05-14T15:48:57;93568.13;;;8.72;100.00
64402;BME280;50724;42.376;23.768;2023-05-14T15:51:58;93579.78;;;8.78;100.00
64402;BME280;50724;42.376;23.768;2023-05-14T15:54:59;93584.56;;;8.82;100.00
64402;BME280;50724;42.376;23.768;2023-05-14T15:58:03;93575.72;;;8.66;100.00
64402;BME280;50724;42.376;23.768;2023-05-14T16:01:04;93576.94;;;8.71;100.00